Time;durP1;ratioP1;P1;durP2;ratioP2;P2;SDS_P1;SDS_P2;PMS_P1;PMS_P2;Temp;Humidity;BMP_temperature;BMP_pressure;BME280_temperature;BME280_humidity;BME280_pressure;Samples;Min_cycle;Max_cycle;Signal;HPM_P1;HPM_P2
2022/07/01 00:00:39;;;;;;;2.42;1.90;;;;;;;21.03;62.38;94579.22;5092434;28;20525;-81
2022/07/01 00:03:07;;;;;;;2.30;2.10;;;;;;;20.98;62.80;94596.13;5093987;28;20222;-84
2022/07/01 00:05:34;;;;;;;2.75;2.00;;;;;;;20.95;62.84;94600.47;5092515;28;20218;-84
2022/07/01 00:08:01;;;;;;;3.28;1.80;;;;;;;20.99;62.44;94595.75;5092279;28;20222;-84
2022/07/01 00:10:27;;;;;;;2.17;1.73;;;;;;;20.95;62.71;94583.94;5092065;28;20222;-85
2022/07/01 00:12:55;;;;;;;3.45;1.80;;;;;;;20.87;63.17;94588.69;5092835;28;20194;-79
2022/07/01 00:15:22;;;;;;;2.05;1.73;;;;;;;20.85;63.30;94590.25;5092314;28;20218;-78
2022/07/01 00:17:49;;;;;;;2.50;2.10;;;;;;;20.85;63.22;94595.75;5091817;28;20207;-83
2022/07/01 00:20:18;;;;;;;2.63;1.67;;;;;;;20.81;63.64;94600.47;5091683;28;20243;-82
2022/07/01 00:22:44;;;;;;;2.47;2.00;;;;;;;20.82;63.74;94604.78;5092673;28;20296;-84
2022/07/01 00:25:11;;;;;;;3.15;2.13;;;;;;;20.74;63.63;94603.22;5091279;28;20246;-83
2022/07/01 00:27:38;;;;;;;3.17;1.92;;;;;;;20.73;64.06;94601.66;5091830;28;20263;-83
2022/07/01 00:30:06;;;;;;;3.35;2.17;;;;;;;20.69;64.12;94603.59;5091561;28;20770;-83
2022/07/01 00:32:33;;;;;;;1.95;1.70;;;;;;;20.62;64.97;94614.63;5091594;28;20558;-83
2022/07/01 00:35:00;;;;;;;2.38;1.85;;;;;;;20.56;65.11;94612.25;5091762;28;20271;-83
2022/07/01 00:37:28;;;;;;;3.17;1.92;;;;;;;20.55;64.67;94605.19;5092037;28;20347;-82
2022/07/01 00:39:55;;;;;;;3.53;2.00;;;;;;;20.52;65.39;94610.66;5091125;28;20226;-82
2022/07/01 00:42:22;;;;;;;2.67;2.47;;;;;;;20.48;65.09;94602.44;5091848;28;20233;-83
2022/07/01 00:44:49;;;;;;;2.95;2.13;;;;;;;20.46;65.01;94607.53;5077558;28;20198;-83
2022/07/01 00:47:16;;;;;;;5.05;2.00;;;;;;;20.45;65.42;94616.97;5091466;28;20222;-82
2022/07/01 00:49:43;;;;;;;2.72;2.20;;;;;;;20.35;65.91;94611.41;5077003;28;20783;-83
2022/07/01 00:52:11;;;;;;;2.17;1.95;;;;;;;20.34;65.61;94610.63;5091256;28;20306;-83
2022/07/01 00:54:39;;;;;;;4.22;2.42;;;;;;;20.26;65.97;94614.53;5091013;28;20219;-83
2022/07/01 00:57:08;;;;;;;2.72;1.88;;;;;;;20.21;66.48;94617.66;5090514;28;20230;-81
2022/07/01 00:59:36;;;;;;;3.60;2.47;;;;;;;20.08;67.08;94608.22;5091274;28;20729;-83
2022/07/01 01:02:04;;;;;;;6.82;2.00;;;;;;;20.02;66.92;94609.75;5091485;28;20701;-83
2022/07/01 01:04:31;;;;;;;2.47;1.90;;;;;;;20.04;66.64;94613.69;5091905;28;20623;-81
2022/07/01 01:06:57;;;;;;;3.58;2.03;;;;;;;20.07;66.64;94617.63;5091061;28;20202;-83
2022/07/01 01:09:25;;;;;;;6.90;1.80;;;;;;;20.00;66.48;94618.38;5090288;28;20230;-83
2022/07/01 01:11:53;;;;;;;2.38;1.77;;;;;;;19.97;67.43;94612.84;5090415;28;20198;-83
2022/07/01 01:14:21;;;;;;;4.05;2.10;;;;;;;19.93;68.68;94623.88;5090955;28;20198;-82
2022/07/01 01:16:47;;;;;;;2.60;2.30;;;;;;;19.76;69.72;94619.88;5090744;28;20305;-83
2022/07/01 01:19:14;;;;;;;4.13;2.00;;;;;;;19.67;69.97;94621.41;5091012;28;20206;-82
2022/07/01 01:21:43;;;;;;;2.78;2.03;;;;;;;19.69;69.56;94619.81;5090566;28;20275;-83
2022/07/01 01:24:09;;;;;;;2.60;1.98;;;;;;;19.63;70.69;94621.38;5091012;28;20281;-83
2022/07/01 01:26:39;;;;;;;3.00;2.00;;;;;;;19.48;71.67;94617.72;5090993;28;20234;-82
2022/07/01 01:29:07;;;;;;;3.33;2.00;;;;;;;19.41;72.46;94608.66;5090386;28;20242;-82
2022/07/01 01:31:34;;;;;;;5.50;2.78;;;;;;;19.40;72.12;94609.84;5077385;28;20309;-83
2022/07/01 01:34:01;;;;;;;3.95;2.40;;;;;;;19.29;72.03;94611.72;5091253;28;20202;-84
2022/07/01 01:36:28;;;;;;;4.22;2.33;;;;;;;19.36;72.04;94622.75;5091093;28;20301;-80
2022/07/01 01:38:57;;;;;;;3.55;2.40;;;;;;;19.36;70.72;94612.56;5091701;28;20213;-82
2022/07/01 01:41:24;;;;;;;4.35;2.22;;;;;;;19.43;71.84;94620.03;5094719;28;20382;-84
2022/07/01 01:43:51;;;;;;;3.35;2.35;;;;;;;19.30;72.15;94625.06;5094883;28;20248;-84
2022/07/01 01:46:17;;;;;;;2.65;2.20;;;;;;;19.27;71.80;94619.59;5094316;28;20214;-84
2022/07/01 01:48:44;;;;;;;3.30;2.22;;;;;;;19.16;72.66;94630.47;5093804;28;20230;-84
2022/07/01 01:51:11;;;;;;;2.60;2.25;;;;;;;19.18;72.62;94633.63;5094105;28;20222;-84
2022/07/01 01:53:38;;;;;;;3.50;2.28;;;;;;;19.19;71.91;94635.22;5094035;28;20219;-82
2022/07/01 01:56:06;;;;;;;3.67;2.17;;;;;;;19.26;71.44;94626.25;5094267;28;20582;-82
2022/07/01 01:58:33;;;;;;;3.38;2.40;;;;;;;19.38;72.47;94631.41;5094616;28;20210;-82
2022/07/01 02:01:01;;;;;;;3.60;2.50;;;;;;;19.14;73.60;94639.09;5094412;28;20222;-82
2022/07/01 02:03:28;;;;;;;3.78;2.60;;;;;;;19.11;73.66;94644.59;5094381;28;20269;-82
2022/07/01 02:05:55;;;;;;;2.83;2.08;;;;;;;19.18;73.00;94634.41;5094154;28;20703;-82
2022/07/01 02:08:22;;;;;;;2.97;2.45;;;;;;;19.12;73.82;94635.97;5093846;28;20222;-82
2022/07/01 02:10:48;;;;;;;2.50;2.30;;;;;;;19.12;74.09;94635.97;5094259;28;20199;-83
2022/07/01 02:13:17;;;;;;;7.07;2.80;;;;;;;19.09;73.93;94636.72;5094205;28;20203;-82
2022/07/01 02:15:44;;;;;;;2.80;1.98;;;;;;;18.97;73.90;94634.28;5093888;28;20695;-82
2022/07/01 02:18:10;;;;;;;3.75;2.40;;;;;;;18.99;73.39;94642.13;5093418;28;20202;-83
2022/07/01 02:20:37;;;;;;;3.75;2.42;;;;;;;18.82;74.63;94643.56;5093905;28;20316;-83
2022/07/01 02:23:04;;;;;;;9.43;2.70;;;;;;;18.69;74.54;94645.03;5094453;28;20627;-82
2022/07/01 02:25:31;;;;;;;4.00;2.70;;;;;;;18.69;74.41;94650.50;5094159;28;20246;-83
2022/07/01 02:27:58;;;;;;;4.45;2.67;;;;;;;18.78;73.64;94648.22;5093662;28;20294;-83
2022/07/01 02:30:26;;;;;;;3.70;2.67;;;;;;;18.91;73.95;94657.75;5094077;28;20234;-82
2022/07/01 02:32:54;;;;;;;3.75;2.22;;;;;;;19.02;74.64;94663.31;5093590;28;20203;-83
2022/07/01 02:35:21;;;;;;;4.55;2.47;;;;;;;18.94;74.62;94661.69;5093951;28;20218;-82
2022/07/01 02:37:48;;;;;;;4.07;2.75;;;;;;;18.86;75.37;94676.53;5093862;28;20335;-83
2022/07/01 02:40:15;;;;;;;4.13;2.58;;;;;;;18.93;75.21;94665.59;5093796;28;20298;-83
2022/07/01 02:42:42;;;;;;;3.88;2.25;;;;;;;18.91;75.27;94673.44;5093196;28;20547;-83
2022/07/01 02:45:09;;;;;;;4.13;2.97;;;;;;;18.90;75.18;94678.13;5093369;28;20209;-83
2022/07/01 02:47:39;;;;;;;2.92;2.40;;;;;;;18.84;75.33;94674.16;5092953;28;20214;-82
2022/07/01 02:50:07;;;;;;;3.88;3.22;;;;;;;18.83;75.60;94678.09;5092666;28;20214;-82
2022/07/01 02:52:35;;;;;;;5.03;3.20;;;;;;;18.90;75.74;94674.59;5092140;28;20283;-83
2022/07/01 02:55:02;;;;;;;3.60;2.78;;;;;;;18.93;75.50;94671.88;5092549;28;20309;-83
2022/07/01 02:57:29;;;;;;;6.15;3.15;;;;;;;18.99;74.89;94681.38;5093132;28;20221;-82
2022/07/01 02:59:55;;;;;;;7.18;3.42;;;;;;;19.08;74.60;94681.81;5093021;28;20251;-82
2022/07/01 03:02:22;;;;;;;4.53;2.95;;;;;;;19.10;74.42;94682.25;5093251;28;20199;-82
2022/07/01 03:04:53;;;;;;;3.65;2.45;;;;;;;19.29;74.03;94683.94;5093038;28;20206;-83
2022/07/01 03:07:21;;;;;;;4.82;2.75;;;;;;;19.64;73.58;94683.41;5092494;28;20226;-83
2022/07/01 03:09:48;;;;;;;4.50;2.72;;;;;;;20.05;71.71;94672.22;5092304;28;20226;-82
2022/07/01 03:12:28;;;;;;;3.00;2.15;;;;;;;20.63;70.18;94687.78;5092533;28;20206;-82
2022/07/01 03:14:56;;;;;;;3.75;2.80;;;;;;;21.21;67.96;94679.19;5092820;28;20229;-82
2022/07/01 03:17:23;;;;;;;3.35;2.42;;;;;;;21.97;65.50;94690.50;5092589;28;20309;-82
2022/07/01 03:19:52;;;;;;;3.50;3.05;;;;;;;22.77;63.13;94691.78;5092244;28;20210;-82
2022/07/01 03:22:20;;;;;;;3.28;2.85;;;;;;;23.52;61.04;94689.25;5091493;28;20690;-83
2022/07/01 03:24:47;;;;;;;4.90;2.95;;;;;;;24.02;59.09;94681.25;5091706;28;20705;-83
2022/07/01 03:27:14;;;;;;;4.78;3.33;;;;;;;24.72;57.72;94668.53;5092506;28;20230;-81
2022/07/01 03:29:41;;;;;;;3.13;2.83;;;;;;;25.23;55.47;94672.13;5092250;28;20758;-82
2022/07/01 03:32:10;;;;;;;3.45;3.13;;;;;;;25.84;54.07;94672.69;5092695;28;20288;-82
2022/07/01 03:34:37;;;;;;;4.30;3.50;;;;;;;26.36;52.43;94676.91;5091936;28;20297;-82
2022/07/01 03:37:05;;;;;;;3.75;3.35;;;;;;;26.79;51.24;94669.19;5092621;28;20283;-82
2022/07/01 03:39:32;;;;;;;4.03;3.58;;;;;;;27.50;49.39;94666.78;5092291;28;20206;-83
2022/07/01 03:41:59;;;;;;;6.60;3.72;;;;;;;27.99;48.11;94673.09;5092221;28;20271;-83
2022/07/01 03:44:27;;;;;;;4.32;3.30;;;;;;;28.41;47.54;94667.59;5091877;28;20190;-83
2022/07/01 03:46:54;;;;;;;3.38;2.95;;;;;;;27.79;47.87;94672.44;5092768;28;20256;-83
2022/07/01 03:49:21;;;;;;;4.30;3.42;;;;;;;28.17;47.38;94675.38;5092931;28;20229;-80
2022/07/01 03:51:47;;;;;;;5.18;3.47;;;;;;;28.29;47.47;94672.66;5091925;28;20217;-82
2022/07/01 03:54:30;;;;;;;4.03;3.10;;;;;;;29.06;45.66;94664.47;5091265;28;20202;-83
2022/07/01 03:56:57;;;;;;;4.18;3.17;;;;;;;29.20;44.89;94666.81;5091941;28;20588;-83
2022/07/01 03:59:24;;;;;;;7.00;3.63;;;;;;;30.04;42.92;94668.06;5092231;28;20271;-83
2022/07/01 04:01:50;;;;;;;3.75;3.33;;;;;;;29.79;43.56;94662.53;5092577;28;20669;-84
2022/07/01 04:04:17;;;;;;;6.10;3.63;;;;;;;29.99;41.64;94660.25;5092019;28;20226;-78
2022/07/01 04:06:46;;;;;;;4.55;3.60;;;;;;;31.04;40.82;94660.34;5092752;28;20198;-85
2022/07/01 04:09:13;;;;;;;4.32;3.55;;;;;;;31.03;40.17;94667.19;5092869;28;20237;-84
2022/07/01 04:11:42;;;;;;;4.90;3.40;;;;;;;31.55;39.35;94664.78;5093089;28;20209;-84
2022/07/01 04:14:10;;;;;;;3.88;3.50;;;;;;;31.97;37.46;94679.06;5092212;28;20206;-85
2022/07/01 04:16:37;;;;;;;4.95;3.72;;;;;;;31.84;37.71;94681.22;5092882;28;20248;-86
2022/07/01 04:19:05;;;;;;;3.90;3.50;;;;;;;31.87;38.00;94677.47;5092364;28;20222;-86
2022/07/01 04:24:17;;;;;;;4.53;3.88;;;;;;;32.06;37.97;94688.25;5090889;28;20239;-83
2022/07/01 04:26:45;;;;;;;6.20;4.60;;;;;;;32.37;37.68;94690.94;5091410;28;20716;-83
2022/07/01 04:29:12;;;;;;;4.40;3.50;;;;;;;32.03;38.13;94691.19;5091581;28;20225;-83
2022/07/01 04:31:40;;;;;;;6.55;4.53;;;;;;;32.36;37.38;94695.00;5091481;28;20758;-84
2022/07/01 04:34:08;;;;;;;4.38;3.97;;;;;;;32.69;37.10;94688.72;5091504;28;20205;-84
2022/07/01 04:36:35;;;;;;;4.47;3.80;;;;;;;33.45;35.60;94684.84;5091851;28;20260;-84
2022/07/01 04:39:02;;;;;;;6.03;3.88;;;;;;;33.76;35.51;94685.31;5090224;28;20619;-84
2022/07/01 04:44:15;;;;;;;5.40;4.07;;;;;;;34.68;34.42;94679.03;5085874;28;20225;-84
2022/07/01 04:46:41;;;;;;;5.45;4.22;;;;;;;35.30;33.25;94684.53;5091224;28;20213;-85
2022/07/01 04:49:08;;;;;;;5.28;3.75;;;;;;;35.12;33.22;94685.50;5090912;28;20685;-84
2022/07/01 04:51:35;;;;;;;4.95;4.10;;;;;;;34.65;33.33;94680.00;5091520;28;20225;-86
2022/07/01 04:54:02;;;;;;;6.85;4.22;;;;;;;35.51;32.69;94682.56;5090752;28;20504;-85
2022/07/01 04:56:29;;;;;;;5.13;3.60;;;;;;;34.48;34.13;94683.25;5090331;28;20750;-83
2022/07/01 04:58:56;;;;;;;5.60;4.20;;;;;;;34.54;33.59;94681.34;5090776;28;20198;-84
2022/07/01 05:01:25;;;;;;;7.78;4.43;;;;;;;35.47;32.23;94676.34;5091077;28;20268;-84
2022/07/01 05:03:51;;;;;;;5.03;4.05;;;;;;;35.38;32.90;94673.66;5090258;28;20263;-85
2022/07/01 05:06:18;;;;;;;5.65;4.28;;;;;;;35.56;32.35;94684.66;5090252;28;20194;-85
2022/07/01 05:08:45;;;;;;;5.82;4.25;;;;;;;35.53;32.79;94677.22;5091049;28;20207;-85
2022/07/01 05:11:12;;;;;;;5.72;4.47;;;;;;;34.53;33.32;94691.06;5090428;28;20230;-84
2022/07/01 05:13:39;;;;;;;5.18;4.47;;;;;;;35.55;32.89;94686.72;5091704;28;20226;-85
2022/07/01 05:16:08;;;;;;;5.30;4.60;;;;;;;34.33;34.55;94685.25;5095162;28;20222;-86
2022/07/01 05:24:05;;;;;;;5.90;4.13;;;;;;;36.12;32.10;94686.25;5083068;28;20229;-86
2022/07/01 05:26:31;;;;;;;5.50;4.13;;;;;;;35.77;31.48;94682.72;5094829;28;20252;-85
2022/07/01 05:28:58;;;;;;;4.90;4.20;;;;;;;36.45;31.06;94685.94;5094685;28;20786;-85
2022/07/01 05:31:25;;;;;;;4.72;3.97;;;;;;;36.79;30.46;94689.94;5094954;28;20206;-84
2022/07/01 05:33:54;;;;;;;5.88;4.47;;;;;;;36.10;32.00;94696.47;5094784;28;20240;-84
2022/07/01 05:36:21;;;;;;;5.35;4.45;;;;;;;37.23;30.69;94691.66;5095112;28;20201;-83
2022/07/01 05:38:48;;;;;;;6.50;4.57;;;;;;;36.87;30.88;94684.63;5094942;28;20227;-82
2022/07/01 05:41:15;;;;;;;5.80;4.63;;;;;;;35.40;32.48;94688.03;5094570;28;20222;-86
2022/07/01 05:43:42;;;;;;;4.30;3.90;;;;;;;35.24;32.75;94686.47;5095156;28;20572;-85
2022/07/01 05:46:09;;;;;;;5.50;4.60;;;;;;;36.20;31.83;94683.81;5095337;28;20710;-82
2022/07/01 05:48:35;;;;;;;7.05;4.65;;;;;;;37.13;30.36;94693.88;5094846;28;20222;-83
2022/07/01 05:51:04;;;;;;;6.03;4.50;;;;;;;37.69;30.18;94683.06;5094278;28;20226;-83
2022/07/01 05:53:31;;;;;;;4.80;3.90;;;;;;;37.20;28.61;94693.44;5094918;28;20256;-82
2022/07/01 05:55:58;;;;;;;5.03;4.53;;;;;;;36.79;29.95;94687.09;5094273;28;20280;-84
2022/07/01 05:58:24;;;;;;;5.85;4.65;;;;;;;35.91;31.64;94688.31;5094640;28;20198;-85
2022/07/01 06:00:51;;;;;;;4.40;4.00;;;;;;;35.68;32.01;94686.38;5093658;28;20724;-82
2022/07/01 06:03:18;;;;;;;5.22;4.47;;;;;;;34.71;33.53;94683.72;5093926;28;20259;-84
2022/07/01 06:05:45;;;;;;;6.65;4.35;;;;;;;35.72;32.45;94686.97;5094174;28;20206;-85
2022/07/01 06:08:13;;;;;;;6.53;3.83;;;;;;;35.77;31.78;94700.41;5093987;28;20198;-86
2022/07/01 06:10:40;;;;;;;6.32;4.32;;;;;;;36.11;31.28;94696.00;5093955;28;20236;-85
2022/07/01 06:13:07;;;;;;;5.00;4.07;;;;;;;35.87;31.04;94693.38;5094313;28;20248;-85
2022/07/01 06:15:34;;;;;;;6.30;4.00;;;;;;;37.51;29.10;94694.72;5093884;28;20631;-84
2022/07/01 06:18:02;;;;;;;4.80;4.30;;;;;;;37.02;30.10;94693.78;5093655;28;20233;-85
2022/07/01 06:20:29;;;;;;;6.88;4.63;;;;;;;38.02;28.95;94688.91;5093674;28;20222;-85
2022/07/01 06:22:57;;;;;;;6.15;4.20;;;;;;;37.40;29.53;94700.28;5094086;28;20661;-84
2022/07/01 06:25:25;;;;;;;5.28;3.88;;;;;;;37.06;30.72;94699.19;5092333;28;20230;-82
2022/07/01 06:27:52;;;;;;;5.43;4.20;;;;;;;36.16;31.69;94700.16;5093425;28;20222;-84
2022/07/01 06:30:19;;;;;;;6.47;4.35;;;;;;;37.05;29.93;94698.41;5093910;28;20268;-85
2022/07/01 06:32:46;;;;;;;5.47;3.90;;;;;;;36.31;30.49;94709.38;5093771;28;20202;-84
2022/07/01 06:35:13;;;;;;;4.35;3.92;;;;;;;36.52;30.10;94696.00;5093474;28;20225;-83
2022/07/01 06:37:40;;;;;;;5.20;4.35;;;;;;;37.50;29.96;94698.81;5093784;28;20252;-84
2022/07/01 06:40:07;;;;;;;12.27;11.27;;;;;;;38.66;28.46;94689.53;5093569;28;20275;-84
2022/07/01 06:42:36;;;;;;;11.25;10.10;;;;;;;37.49;28.40;94697.28;5093710;28;20256;-84
2022/07/01 06:45:03;;;;;;;10.07;9.25;;;;;;;38.09;28.47;94699.03;5093586;28;20222;-85
2022/07/01 06:47:30;;;;;;;10.52;9.73;;;;;;;39.25;28.19;94689.38;5093354;28;20225;-84
2022/07/01 06:49:56;;;;;;;9.98;9.23;;;;;;;39.28;26.87;94694.03;5092973;28;20298;-83
2022/07/01 06:52:23;;;;;;;10.85;9.95;;;;;;;38.94;27.80;94692.44;5093188;28;20226;-83
2022/07/01 06:54:50;;;;;;;11.88;10.98;;;;;;;39.24;28.86;94687.84;5092614;28;20648;-84
2022/07/01 06:57:17;;;;;;;11.30;10.50;;;;;;;37.07;30.50;94698.69;5092721;28;20226;-84
2022/07/01 06:59:45;;;;;;;11.68;10.75;;;;;;;36.72;31.65;94698.06;5092489;28;20306;-83
2022/07/01 07:02:12;;;;;;;11.23;10.43;;;;;;;36.55;31.76;94695.81;5093586;28;20194;-85
2022/07/01 07:04:39;;;;;;;10.75;9.95;;;;;;;35.42;32.89;94702.38;5092564;28;20260;-86
2022/07/01 07:07:06;;;;;;;10.98;10.13;;;;;;;37.04;30.54;94691.19;5092682;28;20267;-86
2022/07/01 07:09:33;;;;;;;10.45;9.68;;;;;;;38.04;30.04;94686.34;5091988;28;20252;-87
2022/07/01 07:11:59;;;;;;;13.75;10.80;;;;;;;37.33;30.76;94693.81;5092390;28;20206;-84
2022/07/01 07:14:26;;;;;;;12.05;11.15;;;;;;;35.98;32.78;94696.34;5093245;28;20214;-86
2022/07/01 07:16:55;;;;;;;10.65;9.82;;;;;;;37.20;30.84;94699.09;5093076;28;20287;-86
2022/07/01 07:19:22;;;;;;;11.27;10.43;;;;;;;36.33;31.79;94694.78;5092613;28;20219;-87
2022/07/01 07:21:48;;;;;;;11.20;10.30;;;;;;;36.33;32.54;94695.56;5092421;28;20202;-86
2022/07/01 07:24:15;;;;;;;11.43;10.35;;;;;;;35.48;33.41;94706.06;5092440;28;20301;-87
2022/07/01 07:26:42;;;;;;;10.43;9.60;;;;;;;35.05;34.66;94708.41;5092419;28;20292;-80
2022/07/01 07:29:09;;;;;;;9.57;8.70;;;;;;;34.00;35.66;94704.25;5092209;28;20226;-84
2022/07/01 07:31:36;;;;;;;9.98;7.90;;;;;;;35.51;33.90;94703.06;5092404;28;20641;-85
2022/07/01 07:34:04;;;;;;;8.85;7.95;;;;;;;35.51;34.64;94694.63;5092101;28;20222;-84
2022/07/01 07:36:32;;;;;;;8.35;7.60;;;;;;;34.13;35.51;94705.56;5091915;28;20199;-86
2022/07/01 07:38:58;;;;;;;8.82;7.35;;;;;;;35.19;33.57;94696.34;5092190;28;20751;-84
2022/07/01 07:41:25;;;;;;;6.65;6.05;;;;;;;35.66;33.92;94700.22;5091960;28;20584;-85
2022/07/01 07:43:52;;;;;;;10.25;6.97;;;;;;;34.66;34.16;94698.44;5092182;28;20719;-87
2022/07/01 07:46:19;;;;;;;7.93;6.25;;;;;;;34.72;34.80;94690.88;5092415;28;20258;-84
2022/07/01 07:48:46;;;;;;;9.00;6.18;;;;;;;35.69;33.30;94687.16;5092399;28;20295;-85
2022/07/01 07:51:17;;;;;;;9.80;6.38;;;;;;;35.17;33.90;94693.25;5092190;28;20324;-86
2022/07/01 07:53:44;;;;;;;6.85;6.15;;;;;;;35.19;33.06;94687.13;5092119;28;20194;-85
2022/07/01 07:56:11;;;;;;;7.22;6.53;;;;;;;34.86;33.44;94690.13;5091679;28;20263;-85
2022/07/01 07:58:41;;;;;;;7.07;6.38;;;;;;;35.45;33.04;94692.97;5092059;28;20206;-87
2022/07/01 08:01:09;;;;;;;7.00;6.30;;;;;;;35.22;33.20;94684.13;5091420;28;20293;-85
2022/07/01 08:03:36;;;;;;;6.65;5.97;;;;;;;35.71;34.45;94684.63;5092130;28;20679;-87
2022/07/01 08:06:03;;;;;;;8.18;5.97;;;;;;;35.64;33.76;94685.84;5091692;28;20252;-86
2022/07/01 08:08:32;;;;;;;6.60;5.93;;;;;;;36.14;33.02;94694.25;5092100;28;20218;-87
2022/07/01 08:11:00;;;;;;;6.53;5.90;;;;;;;36.48;32.75;94678.53;5091982;28;20948;-85
2022/07/01 08:13:27;;;;;;;6.88;6.13;;;;;;;36.29;32.42;94672.41;5092734;28;20210;-85
2022/07/01 08:15:53;;;;;;;6.05;5.45;;;;;;;35.67;33.28;94679.22;5092135;28;20218;-86
2022/07/01 08:18:21;;;;;;;6.55;5.82;;;;;;;35.49;33.39;94673.81;5091797;28;20619;-87
2022/07/01 08:20:50;;;;;;;8.27;5.47;;;;;;;35.92;34.30;94675.75;5091633;28;20711;-87
2022/07/01 08:23:17;;;;;;;6.72;5.95;;;;;;;35.19;33.09;94668.19;5091988;28;20248;-86
2022/07/01 08:25:45;;;;;;;6.60;5.97;;;;;;;35.68;33.93;94669.47;5091541;28;20275;-86
2022/07/01 08:28:12;;;;;;;7.88;5.82;;;;;;;35.43;34.22;94667.31;5091382;28;20226;-85
2022/07/01 08:30:39;;;;;;;5.47;4.97;;;;;;;35.90;32.14;94664.19;5091785;28;20238;-86
2022/07/01 08:33:06;;;;;;;6.50;5.22;;;;;;;35.56;33.14;94662.13;5091568;28;20297;-86
2022/07/01 08:35:33;;;;;;;6.40;5.60;;;;;;;36.20;31.64;94664.06;5091778;28;20657;-85
2022/07/01 08:38:00;;;;;;;5.63;5.10;;;;;;;35.01;33.38;94667.59;5090962;28;20218;-86
2022/07/01 08:40:27;;;;;;;8.25;5.65;;;;;;;35.52;33.83;94667.19;5091232;28;20218;-86
2022/07/01 08:42:58;;;;;;;6.10;5.50;;;;;;;33.89;35.73;94666.16;5091048;28;20766;-85
2022/07/01 08:45:27;;;;;;;6.40;5.50;;;;;;;33.24;35.60;94674.56;5091374;28;20285;-86
2022/07/01 08:47:57;;;;;;;5.90;5.40;;;;;;;33.83;36.53;94668.09;5091624;28;20261;-85
2022/07/01 08:50:24;;;;;;;6.47;5.65;;;;;;;33.38;37.38;94669.09;5090775;28;20256;-85
2022/07/01 08:52:51;;;;;;;6.68;5.97;;;;;;;32.78;38.00;94674.72;5091467;28;20722;-85
2022/07/01 08:55:18;;;;;;;6.22;5.68;;;;;;;33.19;36.11;94670.41;5090980;28;20226;-87
2022/07/01 08:57:45;;;;;;;7.28;6.55;;;;;;;31.84;39.08;94686.81;5091017;28;20830;-84
2022/07/01 09:00:14;;;;;;;7.50;6.38;;;;;;;32.77;36.70;94675.97;5093749;28;20206;-84
2022/07/01 09:02:53;;;;;;;7.00;6.38;;;;;;;32.36;37.50;94672.56;5090299;28;20197;-79
2022/07/01 09:05:20;;;;;;;6.35;5.80;;;;;;;31.91;37.25;94672.50;5091224;28;20231;-85
2022/07/01 09:07:48;;;;;;;6.20;5.60;;;;;;;33.24;36.00;94666.16;5090210;28;20230;-86
2022/07/01 09:10:18;;;;;;;6.60;5.90;;;;;;;32.91;35.95;94672.50;5090389;28;20271;-83
2022/07/01 09:12:45;;;;;;;7.45;6.72;;;;;;;32.36;37.58;94678.19;5090293;28;20240;-85
2022/07/01 09:15:26;;;;;;;10.13;6.82;;;;;;;32.21;37.49;94663.22;5090997;28;20222;-85
2022/07/01 09:17:54;;;;;;;8.85;6.78;;;;;;;32.90;36.66;94664.56;5091311;28;20327;-84
2022/07/01 09:20:27;;;;;;;8.23;7.40;;;;;;;32.76;37.19;94660.38;5090838;28;20260;-86
2022/07/01 09:23:01;;;;;;;8.27;7.55;;;;;;;33.10;37.83;94671.19;5090910;28;20268;-86
2022/07/01 09:25:30;;;;;;;7.43;6.75;;;;;;;32.73;37.68;94664.13;5090966;28;20234;-80
2022/07/01 09:28:05;;;;;;;7.22;6.63;;;;;;;31.95;38.02;94670.34;5091018;28;20206;-80
2022/07/01 09:30:33;;;;;;;7.22;6.53;;;;;;;32.26;39.36;94665.38;5078807;28;20225;-80
2022/07/01 09:33:08;;;;;;;7.30;6.70;;;;;;;32.35;38.53;94659.78;5090613;28;20234;-82
2022/07/01 09:35:35;;;;;;;7.30;6.70;;;;;;;32.79;37.08;94659.44;5090899;28;20255;-84
2022/07/01 09:38:02;;;;;;;8.13;7.43;;;;;;;32.56;35.39;94660.06;5090974;28;20217;-84
2022/07/01 09:40:48;;;;;;;7.93;7.20;;;;;;;33.44;34.24;94652.38;5090853;28;20613;-85
2022/07/01 09:43:19;;;;;;;7.47;6.57;;;;;;;33.31;30.81;94652.59;5091104;28;20193;-86
2022/07/01 09:46:09;;;;;;;7.72;7.13;;;;;;;33.31;33.23;94649.00;5091143;28;20230;-85
2022/07/01 09:48:47;;;;;;;7.43;6.72;;;;;;;32.82;34.27;94652.88;5086435;28;20218;-84
2022/07/01 09:51:16;;;;;;;7.22;6.72;;;;;;;33.02;32.17;94644.72;5090262;28;20259;-86
2022/07/01 09:53:43;;;;;;;7.72;7.03;;;;;;;33.14;30.51;94646.53;5090729;28;20580;-83
2022/07/01 09:56:10;;;;;;;7.57;7.07;;;;;;;33.19;31.52;94643.09;5090626;28;20210;-86
2022/07/01 09:58:38;;;;;;;7.95;7.35;;;;;;;32.72;33.57;94642.94;5091081;28;20203;-83
2022/07/01 10:01:08;;;;;;;8.10;7.50;;;;;;;33.09;31.98;94629.53;5093302;28;20195;-87
2022/07/01 10:03:39;;;;;;;8.80;8.02;;;;;;;33.14;33.73;94629.69;5094260;28;20218;-84
2022/07/01 10:06:26;;;;;;;8.90;8.00;;;;;;;32.55;33.78;94638.88;5080715;28;20222;-86
2022/07/01 10:09:07;;;;;;;8.48;7.25;;;;;;;32.79;32.18;94634.19;5094270;28;20222;-84
2022/07/01 10:12:07;;;;;;;8.60;7.90;;;;;;;32.77;30.46;94628.25;5094176;28;20234;-85
2022/07/01 10:14:38;;;;;;;8.60;7.43;;;;;;;32.56;32.18;94644.00;5073438;28;20635;-80
2022/07/01 10:17:06;;;;;;;7.93;7.38;;;;;;;32.84;31.81;94639.16;5094388;28;20194;-85
2022/07/01 10:19:34;;;;;;;8.48;7.88;;;;;;;32.89;32.90;94632.91;5094158;28;20214;-84
2022/07/01 10:22:22;;;;;;;9.82;9.07;;;;;;;32.76;33.54;94626.72;5093691;28;20218;-86
2022/07/01 10:24:48;;;;;;;7.95;7.35;;;;;;;33.46;31.81;94608.50;5094855;28;20295;-84
2022/07/01 10:27:21;;;;;;;8.57;7.88;;;;;;;33.16;31.77;94615.97;5103736;28;20191;-82
2022/07/01 10:29:49;;;;;;;8.35;7.55;;;;;;;32.84;32.06;94630.72;5104856;28;20222;-85
2022/07/01 10:32:27;;;;;;;8.80;8.10;;;;;;;33.11;30.30;94608.16;5095492;28;20229;-85
2022/07/01 10:35:07;;;;;;;8.07;7.40;;;;;;;34.17;29.88;94601.28;5093587;28;20309;-85
2022/07/01 10:37:34;;;;;;;9.27;8.48;;;;;;;34.17;28.54;94604.88;5093960;28;20226;-85
2022/07/01 10:40:02;;;;;;;8.40;7.70;;;;;;;34.35;28.14;94601.16;5093883;28;20593;-86
2022/07/01 10:42:31;;;;;;;7.63;7.10;;;;;;;33.41;26.75;94597.13;5094178;28;20214;-87
2022/07/01 10:45:03;;;;;;;8.55;7.85;;;;;;;32.53;27.72;94590.91;5093947;28;20317;-85
2022/07/01 10:47:29;;;;;;;7.68;7.07;;;;;;;32.61;26.89;94592.09;5093735;28;20271;-85
2022/07/01 10:49:59;;;;;;;7.82;7.13;;;;;;;32.93;27.10;94585.03;5094254;28;20202;-86
2022/07/01 10:52:27;;;;;;;7.55;6.95;;;;;;;33.00;26.35;94585.44;5093475;28;20234;-86
2022/07/01 10:54:56;;;;;;;7.90;7.30;;;;;;;32.55;27.03;94591.16;5093037;28;20305;-86
2022/07/01 10:57:28;;;;;;;7.70;7.10;;;;;;;33.16;26.02;94585.06;5092880;28;20644;-85
2022/07/01 10:59:57;;;;;;;8.57;7.88;;;;;;;33.36;26.11;94583.72;5092711;28;20208;-87
2022/07/01 11:02:25;;;;;;;6.55;6.15;;;;;;;33.84;26.89;94585.31;5092911;28;20293;-87
2022/07/01 11:04:54;;;;;;;7.88;7.30;;;;;;;33.90;26.24;94576.97;5092698;28;20222;-86
2022/07/01 11:07:24;;;;;;;8.15;7.63;;;;;;;34.29;24.71;94583.41;5092701;28;20222;-84
2022/07/01 11:09:52;;;;;;;8.35;7.70;;;;;;;34.12;24.55;94587.91;5092523;28;20218;-84
2022/07/01 11:12:21;;;;;;;8.05;7.45;;;;;;;33.99;24.84;94570.53;5091436;28;20291;-84
2022/07/01 11:14:49;;;;;;;8.77;8.15;;;;;;;34.31;25.29;94582.91;5093138;28;20206;-85
2022/07/01 11:17:15;;;;;;;8.80;8.30;;;;;;;34.34;25.02;94582.72;5092964;28;20649;-87
2022/07/01 11:19:48;;;;;;;9.27;8.48;;;;;;;34.57;25.28;94579.06;5092740;28;20237;-85
2022/07/01 11:22:20;;;;;;;8.77;8.07;;;;;;;34.62;25.34;94590.88;5079218;28;20637;-85
2022/07/01 11:24:47;;;;;;;9.32;8.73;;;;;;;34.13;27.35;94578.22;5092346;28;20682;-87
2022/07/01 11:27:15;;;;;;;8.45;7.88;;;;;;;33.97;26.10;94578.66;5092523;28;20743;-75
2022/07/01 11:29:42;;;;;;;8.18;7.63;;;;;;;34.02;26.32;94566.75;5093112;28;20206;-85
2022/07/01 11:32:09;;;;;;;8.77;8.27;;;;;;;32.73;26.92;94571.53;5092324;28;20230;-82
2022/07/01 11:34:38;;;;;;;8.45;7.85;;;;;;;33.18;27.07;94584.59;5092699;28;20255;-85
2022/07/01 11:40:04;;;;;;;9.13;8.52;;;;;;;34.03;25.65;94569.06;5092311;28;20194;-86
2022/07/01 11:42:33;;;;;;;8.73;8.02;;;;;;;33.66;25.32;94573.41;5092235;28;20365;-80
2022/07/01 11:45:00;;;;;;;8.73;8.18;;;;;;;33.51;26.52;94567.72;5092395;28;20226;-78
2022/07/01 11:47:28;;;;;;;10.02;9.20;;;;;;;33.17;26.37;94566.97;5092556;28;20282;-85
2022/07/01 11:49:55;;;;;;;9.23;8.63;;;;;;;33.60;28.06;94564.09;5092373;28;20226;-86